sensor_id;sensor_type;location;lat;lon;timestamp;P1;durP1;ratioP1;P2;durP2;ratioP2
6394;SDS011;3230;42.588;23.358;2022-10-16T00:01:31;9.03;;;5.40;;
6394;SDS011;3230;42.588;23.358;2022-10-16T00:03:57;7.83;;;4.67;;
6394;SDS011;3230;42.588;23.358;2022-10-16T00:06:24;6.65;;;4.63;;
6394;SDS011;3230;42.588;23.358;2022-10-16T00:08:50;8.02;;;5.00;;
6394;SDS011;3230;42.588;23.358;2022-10-16T00:13:50;10.45;;;5.40;;
6394;SDS011;3230;42.588;23.358;2022-10-16T00:16:19;11.52;;;5.30;;
6394;SDS011;3230;42.588;23.358;2022-10-16T00:18:45;7.87;;;5.00;;
6394;SDS011;3230;42.588;23.358;2022-10-16T00:21:12;9.20;;;4.97;;
6394;SDS011;3230;42.588;23.358;2022-10-16T00:23:39;8.25;;;4.43;;
6394;SDS011;3230;42.588;23.358;2022-10-16T00:26:09;10.57;;;4.67;;
6394;SDS011;3230;42.588;23.358;2022-10-16T00:28:41;6.60;;;4.40;;
6394;SDS011;3230;42.588;23.358;2022-10-16T00:31:08;7.87;;;4.93;;
6394;SDS011;3230;42.588;23.358;2022-10-16T00:33:35;10.20;;;5.00;;
6394;SDS011;3230;42.588;23.358;2022-10-16T00:36:02;10.53;;;5.87;;
6394;SDS011;3230;42.588;23.358;2022-10-16T00:38:28;9.63;;;6.07;;
6394;SDS011;3230;42.588;23.358;2022-10-16T00:40:54;12.00;;;6.83;;
6394;SDS011;3230;42.588;23.358;2022-10-16T00:46:05;13.77;;;6.50;;
6394;SDS011;3230;42.588;23.358;2022-10-16T00:48:35;9.38;;;6.15;;
6394;SDS011;3230;42.588;23.358;2022-10-16T00:51:01;9.03;;;5.67;;
6394;SDS011;3230;42.588;23.358;2022-10-16T00:53:27;8.67;;;5.27;;
6394;SDS011;3230;42.588;23.358;2022-10-16T00:55:53;12.83;;;5.47;;
6394;SDS011;3230;42.588;23.358;2022-10-16T00:58:18;8.20;;;4.93;;
6394;SDS011;3230;42.588;23.358;2022-10-16T01:00:45;7.32;;;4.85;;
6394;SDS011;3230;42.588;23.358;2022-10-16T01:03:27;11.50;;;4.43;;
6394;SDS011;3230;42.588;23.358;2022-10-16T01:08:53;8.50;;;4.57;;
6394;SDS011;3230;42.588;23.358;2022-10-16T01:11:24;6.55;;;4.60;;
6394;SDS011;3230;42.588;23.358;2022-10-16T01:13:58;7.40;;;4.80;;
6394;SDS011;3230;42.588;23.358;2022-10-16T01:16:33;8.50;;;4.68;;
6394;SDS011;3230;42.588;23.358;2022-10-16T01:19:30;7.15;;;4.20;;
6394;SDS011;3230;42.588;23.358;2022-10-16T01:22:00;6.75;;;4.18;;
6394;SDS011;3230;42.588;23.358;2022-10-16T01:29:34;6.80;;;4.55;;
6394;SDS011;3230;42.588;23.358;2022-10-16T01:32:05;5.18;;;4.18;;
6394;SDS011;3230;42.588;23.358;2022-10-16T01:34:47;5.65;;;3.88;;
6394;SDS011;3230;42.588;23.358;2022-10-16T01:37:18;6.93;;;4.30;;
6394;SDS011;3230;42.588;23.358;2022-10-16T01:39:51;6.70;;;4.05;;
6394;SDS011;3230;42.588;23.358;2022-10-16T01:42:22;5.43;;;3.90;;
6394;SDS011;3230;42.588;23.358;2022-10-16T01:44:53;6.22;;;3.88;;
6394;SDS011;3230;42.588;23.358;2022-10-16T01:47:22;5.47;;;3.60;;
6394;SDS011;3230;42.588;23.358;2022-10-16T01:49:50;5.75;;;4.00;;
6394;SDS011;3230;42.588;23.358;2022-10-16T01:52:17;6.13;;;4.22;;
6394;SDS011;3230;42.588;23.358;2022-10-16T01:54:47;6.40;;;4.28;;
6394;SDS011;3230;42.588;23.358;2022-10-16T01:57:16;8.20;;;4.45;;
6394;SDS011;3230;42.588;23.358;2022-10-16T01:59:46;4.70;;;3.88;;
6394;SDS011;3230;42.588;23.358;2022-10-16T02:02:15;6.55;;;4.15;;
6394;SDS011;3230;42.588;23.358;2022-10-16T02:04:45;7.85;;;4.72;;
6394;SDS011;3230;42.588;23.358;2022-10-16T02:07:14;6.45;;;4.47;;
6394;SDS011;3230;42.588;23.358;2022-10-16T02:09:40;6.40;;;4.65;;
6394;SDS011;3230;42.588;23.358;2022-10-16T02:12:39;7.33;;;4.90;;
6394;SDS011;3230;42.588;23.358;2022-10-16T02:15:00;6.72;;;4.30;;
6394;SDS011;3230;42.588;23.358;2022-10-16T02:17:26;7.93;;;4.60;;
6394;SDS011;3230;42.588;23.358;2022-10-16T02:19:52;6.90;;;4.30;;
6394;SDS011;3230;42.588;23.358;2022-10-16T02:22:37;6.50;;;4.28;;
6394;SDS011;3230;42.588;23.358;2022-10-16T02:25:10;6.97;;;4.57;;
6394;SDS011;3230;42.588;23.358;2022-10-16T02:27:50;5.95;;;4.22;;
6394;SDS011;3230;42.588;23.358;2022-10-16T02:30:27;7.38;;;4.18;;
6394;SDS011;3230;42.588;23.358;2022-10-16T02:32:58;7.30;;;4.80;;
6394;SDS011;3230;42.588;23.358;2022-10-16T02:35:26;8.88;;;4.93;;
6394;SDS011;3230;42.588;23.358;2022-10-16T02:37:52;14.63;;;4.80;;
6394;SDS011;3230;42.588;23.358;2022-10-16T02:40:19;9.77;;;4.70;;
6394;SDS011;3230;42.588;23.358;2022-10-16T02:42:49;7.07;;;4.70;;
6394;SDS011;3230;42.588;23.358;2022-10-16T02:45:15;8.43;;;5.00;;
6394;SDS011;3230;42.588;23.358;2022-10-16T02:47:41;10.98;;;5.63;;
6394;SDS011;3230;42.588;23.358;2022-10-16T02:50:07;12.37;;;5.87;;
6394;SDS011;3230;42.588;23.358;2022-10-16T02:52:32;8.97;;;5.43;;
6394;SDS011;3230;42.588;23.358;2022-10-16T02:54:58;10.97;;;5.70;;
6394;SDS011;3230;42.588;23.358;2022-10-16T02:57:23;13.70;;;6.20;;
6394;SDS011;3230;42.588;23.358;2022-10-16T02:59:49;11.10;;;5.60;;
6394;SDS011;3230;42.588;23.358;2022-10-16T03:02:14;8.00;;;5.30;;
6394;SDS011;3230;42.588;23.358;2022-10-16T03:04:39;11.67;;;5.43;;
6394;SDS011;3230;42.588;23.358;2022-10-16T03:07:05;9.53;;;5.43;;
6394;SDS011;3230;42.588;23.358;2022-10-16T03:09:31;9.30;;;5.20;;
6394;SDS011;3230;42.588;23.358;2022-10-16T03:11:56;9.30;;;5.10;;
6394;SDS011;3230;42.588;23.358;2022-10-16T03:14:21;7.50;;;4.67;;
6394;SDS011;3230;42.588;23.358;2022-10-16T03:16:47;8.70;;;5.13;;
6394;SDS011;3230;42.588;23.358;2022-10-16T03:19:12;8.00;;;5.47;;
6394;SDS011;3230;42.588;23.358;2022-10-16T03:21:38;8.83;;;5.23;;
6394;SDS011;3230;42.588;23.358;2022-10-16T03:24:03;9.90;;;4.90;;
6394;SDS011;3230;42.588;23.358;2022-10-16T03:26:29;8.93;;;4.70;;
6394;SDS011;3230;42.588;23.358;2022-10-16T03:28:54;8.30;;;5.50;;
6394;SDS011;3230;42.588;23.358;2022-10-16T03:31:19;12.37;;;6.47;;
6394;SDS011;3230;42.588;23.358;2022-10-16T03:33:45;12.40;;;5.83;;
6394;SDS011;3230;42.588;23.358;2022-10-16T03:36:10;9.90;;;5.70;;
6394;SDS011;3230;42.588;23.358;2022-10-16T03:38:36;13.10;;;6.83;;
6394;SDS011;3230;42.588;23.358;2022-10-16T03:41:01;11.20;;;7.07;;
6394;SDS011;3230;42.588;23.358;2022-10-16T03:43:27;12.00;;;6.87;;
6394;SDS011;3230;42.588;23.358;2022-10-16T03:45:52;11.50;;;7.20;;
6394;SDS011;3230;42.588;23.358;2022-10-16T03:48:18;13.07;;;7.80;;
6394;SDS011;3230;42.588;23.358;2022-10-16T03:50:44;12.93;;;8.30;;
6394;SDS011;3230;42.588;23.358;2022-10-16T03:53:09;11.70;;;7.13;;
6394;SDS011;3230;42.588;23.358;2022-10-16T03:55:35;18.00;;;8.17;;
6394;SDS011;3230;42.588;23.358;2022-10-16T03:58:00;13.50;;;7.90;;
6394;SDS011;3230;42.588;23.358;2022-10-16T04:00:26;13.50;;;7.10;;
6394;SDS011;3230;42.588;23.358;2022-10-16T04:02:51;12.13;;;6.80;;
6394;SDS011;3230;42.588;23.358;2022-10-16T04:05:17;14.70;;;7.53;;
6394;SDS011;3230;42.588;23.358;2022-10-16T04:07:42;14.17;;;7.70;;
6394;SDS011;3230;42.588;23.358;2022-10-16T04:10:08;17.60;;;8.10;;
6394;SDS011;3230;42.588;23.358;2022-10-16T04:12:33;13.90;;;7.67;;
6394;SDS011;3230;42.588;23.358;2022-10-16T04:14:59;13.37;;;7.30;;
6394;SDS011;3230;42.588;23.358;2022-10-16T04:17:24;13.00;;;7.57;;
6394;SDS011;3230;42.588;23.358;2022-10-16T04:19:49;14.80;;;8.17;;
6394;SDS011;3230;42.588;23.358;2022-10-16T04:22:15;14.70;;;8.23;;
6394;SDS011;3230;42.588;23.358;2022-10-16T04:24:40;14.10;;;7.30;;
6394;SDS011;3230;42.588;23.358;2022-10-16T04:27:05;17.57;;;7.73;;
6394;SDS011;3230;42.588;23.358;2022-10-16T04:29:31;18.20;;;8.17;;
6394;SDS011;3230;42.588;23.358;2022-10-16T04:31:56;13.70;;;7.47;;
6394;SDS011;3230;42.588;23.358;2022-10-16T04:34:22;12.17;;;6.30;;
6394;SDS011;3230;42.588;23.358;2022-10-16T04:36:47;11.23;;;6.33;;
6394;SDS011;3230;42.588;23.358;2022-10-16T04:39:16;10.25;;;6.28;;
6394;SDS011;3230;42.588;23.358;2022-10-16T04:41:41;9.00;;;5.40;;
6394;SDS011;3230;42.588;23.358;2022-10-16T04:44:07;10.60;;;6.80;;
6394;SDS011;3230;42.588;23.358;2022-10-16T04:46:32;11.93;;;6.30;;
6394;SDS011;3230;42.588;23.358;2022-10-16T04:48:58;12.67;;;6.07;;
6394;SDS011;3230;42.588;23.358;2022-10-16T04:51:23;10.97;;;6.90;;
6394;SDS011;3230;42.588;23.358;2022-10-16T04:53:50;11.25;;;6.03;;
6394;SDS011;3230;42.588;23.358;2022-10-16T04:56:16;11.67;;;6.30;;
6394;SDS011;3230;42.588;23.358;2022-10-16T04:58:41;11.53;;;6.43;;
6394;SDS011;3230;42.588;23.358;2022-10-16T05:01:07;11.13;;;6.87;;
6394;SDS011;3230;42.588;23.358;2022-10-16T05:03:32;9.90;;;6.00;;
6394;SDS011;3230;42.588;23.358;2022-10-16T05:05:57;9.30;;;6.30;;
6394;SDS011;3230;42.588;23.358;2022-10-16T05:08:23;8.43;;;5.70;;
6394;SDS011;3230;42.588;23.358;2022-10-16T05:10:48;10.60;;;6.77;;
6394;SDS011;3230;42.588;23.358;2022-10-16T05:13:14;11.87;;;6.60;;
6394;SDS011;3230;42.588;23.358;2022-10-16T05:15:39;16.77;;;8.37;;
6394;SDS011;3230;42.588;23.358;2022-10-16T05:18:05;19.90;;;11.13;;
6394;SDS011;3230;42.588;23.358;2022-10-16T05:20:30;24.27;;;11.90;;
6394;SDS011;3230;42.588;23.358;2022-10-16T05:22:55;19.03;;;10.73;;
6394;SDS011;3230;42.588;23.358;2022-10-16T05:25:21;18.00;;;10.20;;
6394;SDS011;3230;42.588;23.358;2022-10-16T05:27:47;17.60;;;10.40;;
6394;SDS011;3230;42.588;23.358;2022-10-16T05:30:13;12.17;;;8.00;;
6394;SDS011;3230;42.588;23.358;2022-10-16T05:32:39;12.20;;;7.40;;
6394;SDS011;3230;42.588;23.358;2022-10-16T05:35:05;15.67;;;8.20;;
6394;SDS011;3230;42.588;23.358;2022-10-16T05:37:31;12.70;;;7.90;;
6394;SDS011;3230;42.588;23.358;2022-10-16T05:39:56;11.97;;;7.27;;
6394;SDS011;3230;42.588;23.358;2022-10-16T05:42:21;11.27;;;7.70;;
6394;SDS011;3230;42.588;23.358;2022-10-16T05:44:47;22.20;;;9.90;;
6394;SDS011;3230;42.588;23.358;2022-10-16T05:47:12;13.03;;;6.80;;
6394;SDS011;3230;42.588;23.358;2022-10-16T05:49:39;12.87;;;7.40;;
6394;SDS011;3230;42.588;23.358;2022-10-16T05:52:04;10.43;;;7.20;;
6394;SDS011;3230;42.588;23.358;2022-10-16T05:54:30;9.63;;;6.37;;
6394;SDS011;3230;42.588;23.358;2022-10-16T05:56:55;11.30;;;6.90;;
6394;SDS011;3230;42.588;23.358;2022-10-16T05:59:20;8.43;;;5.83;;
6394;SDS011;3230;42.588;23.358;2022-10-16T06:01:46;6.97;;;4.30;;
6394;SDS011;3230;42.588;23.358;2022-10-16T06:04:11;7.07;;;4.93;;
6394;SDS011;3230;42.588;23.358;2022-10-16T06:06:37;6.40;;;4.83;;
6394;SDS011;3230;42.588;23.358;2022-10-16T06:09:02;6.53;;;4.40;;
6394;SDS011;3230;42.588;23.358;2022-10-16T06:11:29;5.27;;;4.60;;
6394;SDS011;3230;42.588;23.358;2022-10-16T06:13:57;5.80;;;4.33;;
6394;SDS011;3230;42.588;23.358;2022-10-16T06:16:31;9.43;;;4.17;;
6394;SDS011;3230;42.588;23.358;2022-10-16T06:18:58;7.20;;;4.73;;
6394;SDS011;3230;42.588;23.358;2022-10-16T06:21:26;7.13;;;4.73;;
6394;SDS011;3230;42.588;23.358;2022-10-16T06:23:53;5.77;;;4.80;;
6394;SDS011;3230;42.588;23.358;2022-10-16T06:26:20;6.27;;;5.67;;
6394;SDS011;3230;42.588;23.358;2022-10-16T06:28:48;9.73;;;7.63;;
6394;SDS011;3230;42.588;23.358;2022-10-16T06:31:13;6.37;;;5.30;;
6394;SDS011;3230;42.588;23.358;2022-10-16T06:33:40;8.47;;;5.93;;
6394;SDS011;3230;42.588;23.358;2022-10-16T06:36:09;6.00;;;4.93;;
6394;SDS011;3230;42.588;23.358;2022-10-16T06:38:36;9.40;;;6.93;;
6394;SDS011;3230;42.588;23.358;2022-10-16T06:41:03;8.50;;;5.83;;
6394;SDS011;3230;42.588;23.358;2022-10-16T06:43:30;7.00;;;5.63;;
6394;SDS011;3230;42.588;23.358;2022-10-16T06:46:00;22.30;;;6.20;;
6394;SDS011;3230;42.588;23.358;2022-10-16T06:48:26;7.80;;;5.53;;
6394;SDS011;3230;42.588;23.358;2022-10-16T06:51:00;8.73;;;5.20;;
6394;SDS011;3230;42.588;23.358;2022-10-16T06:53:29;10.63;;;5.00;;
6394;SDS011;3230;42.588;23.358;2022-10-16T06:55:56;6.47;;;4.80;;
6394;SDS011;3230;42.588;23.358;2022-10-16T06:58:22;5.33;;;4.00;;
6394;SDS011;3230;42.588;23.358;2022-10-16T07:00:48;6.37;;;5.00;;
6394;SDS011;3230;42.588;23.358;2022-10-16T07:03:13;8.43;;;4.93;;
6394;SDS011;3230;42.588;23.358;2022-10-16T07:05:40;5.73;;;4.10;;
6394;SDS011;3230;42.588;23.358;2022-10-16T07:08:08;6.60;;;4.50;;
6394;SDS011;3230;42.588;23.358;2022-10-16T07:10:34;7.03;;;4.07;;
6394;SDS011;3230;42.588;23.358;2022-10-16T07:13:00;7.13;;;4.80;;
6394;SDS011;3230;42.588;23.358;2022-10-16T07:15:26;4.87;;;3.77;;
6394;SDS011;3230;42.588;23.358;2022-10-16T07:17:52;6.60;;;4.03;;
6394;SDS011;3230;42.588;23.358;2022-10-16T07:20:18;7.33;;;4.40;;
6394;SDS011;3230;42.588;23.358;2022-10-16T07:22:44;4.40;;;3.60;;
6394;SDS011;3230;42.588;23.358;2022-10-16T07:25:09;5.60;;;3.90;;
6394;SDS011;3230;42.588;23.358;2022-10-16T07:27:36;6.20;;;3.80;;
6394;SDS011;3230;42.588;23.358;2022-10-16T07:30:01;9.50;;;3.70;;
6394;SDS011;3230;42.588;23.358;2022-10-16T07:32:28;4.77;;;3.90;;
6394;SDS011;3230;42.588;23.358;2022-10-16T07:34:53;4.30;;;3.63;;
6394;SDS011;3230;42.588;23.358;2022-10-16T07:37:20;3.80;;;3.40;;
6394;SDS011;3230;42.588;23.358;2022-10-16T07:39:46;4.90;;;3.87;;
6394;SDS011;3230;42.588;23.358;2022-10-16T07:42:12;4.60;;;3.30;;
6394;SDS011;3230;42.588;23.358;2022-10-16T07:44:37;4.00;;;3.43;;
6394;SDS011;3230;42.588;23.358;2022-10-16T07:47:03;7.17;;;3.20;;
6394;SDS011;3230;42.588;23.358;2022-10-16T07:49:28;4.27;;;3.47;;
6394;SDS011;3230;42.588;23.358;2022-10-16T07:51:54;4.20;;;3.10;;
6394;SDS011;3230;42.588;23.358;2022-10-16T07:54:19;3.90;;;3.00;;
6394;SDS011;3230;42.588;23.358;2022-10-16T07:56:45;4.60;;;3.70;;
6394;SDS011;3230;42.588;23.358;2022-10-16T07:59:10;6.00;;;3.77;;
6394;SDS011;3230;42.588;23.358;2022-10-16T08:01:36;4.20;;;2.93;;
6394;SDS011;3230;42.588;23.358;2022-10-16T08:04:01;3.93;;;3.37;;
6394;SDS011;3230;42.588;23.358;2022-10-16T08:06:27;4.17;;;3.60;;
6394;SDS011;3230;42.588;23.358;2022-10-16T08:08:52;4.43;;;3.20;;
6394;SDS011;3230;42.588;23.358;2022-10-16T08:11:17;6.67;;;2.87;;
6394;SDS011;3230;42.588;23.358;2022-10-16T08:13:43;3.70;;;3.10;;
6394;SDS011;3230;42.588;23.358;2022-10-16T08:16:09;4.50;;;3.17;;
6394;SDS011;3230;42.588;23.358;2022-10-16T08:18:38;4.80;;;3.57;;
6394;SDS011;3230;42.588;23.358;2022-10-16T08:21:05;4.40;;;2.90;;
6394;SDS011;3230;42.588;23.358;2022-10-16T08:23:32;3.73;;;3.33;;
6394;SDS011;3230;42.588;23.358;2022-10-16T08:26:01;5.27;;;3.03;;
6394;SDS011;3230;42.588;23.358;2022-10-16T08:28:31;5.87;;;3.40;;
6394;SDS011;3230;42.588;23.358;2022-10-16T08:31:05;6.60;;;3.60;;
6394;SDS011;3230;42.588;23.358;2022-10-16T08:33:35;3.63;;;3.20;;
6394;SDS011;3230;42.588;23.358;2022-10-16T08:36:01;6.23;;;3.47;;
6394;SDS011;3230;42.588;23.358;2022-10-16T08:38:28;5.53;;;3.83;;
6394;SDS011;3230;42.588;23.358;2022-10-16T08:40:55;6.60;;;3.60;;
6394;SDS011;3230;42.588;23.358;2022-10-16T08:44:01;6.60;;;4.00;;
6394;SDS011;3230;42.588;23.358;2022-10-16T08:46:57;6.80;;;5.30;;
6394;SDS011;3230;42.588;23.358;2022-10-16T08:49:25;8.73;;;4.77;;
6394;SDS011;3230;42.588;23.358;2022-10-16T08:51:52;13.93;;;5.97;;
6394;SDS011;3230;42.588;23.358;2022-10-16T08:56:46;5.33;;;3.50;;
6394;SDS011;3230;42.588;23.358;2022-10-16T08:59:11;5.70;;;3.43;;
6394;SDS011;3230;42.588;23.358;2022-10-16T09:01:40;6.07;;;3.90;;
6394;SDS011;3230;42.588;23.358;2022-10-16T09:04:43;10.33;;;4.30;;
6394;SDS011;3230;42.588;23.358;2022-10-16T09:12:48;5.90;;;3.47;;
6394;SDS011;3230;42.588;23.358;2022-10-16T09:15:51;10.67;;;6.23;;
6394;SDS011;3230;42.588;23.358;2022-10-16T09:18:29;9.53;;;5.30;;
6394;SDS011;3230;42.588;23.358;2022-10-16T09:21:09;14.03;;;7.20;;
6394;SDS011;3230;42.588;23.358;2022-10-16T09:23:49;6.00;;;4.37;;
6394;SDS011;3230;42.588;23.358;2022-10-16T09:26:15;6.17;;;4.00;;
6394;SDS011;3230;42.588;23.358;2022-10-16T09:28:43;5.70;;;4.30;;
6394;SDS011;3230;42.588;23.358;2022-10-16T09:31:15;7.13;;;4.60;;
6394;SDS011;3230;42.588;23.358;2022-10-16T09:33:43;10.23;;;4.53;;
6394;SDS011;3230;42.588;23.358;2022-10-16T09:36:12;6.40;;;4.57;;
6394;SDS011;3230;42.588;23.358;2022-10-16T09:38:38;10.10;;;4.80;;
6394;SDS011;3230;42.588;23.358;2022-10-16T09:48:58;7.27;;;4.00;;
6394;SDS011;3230;42.588;23.358;2022-10-16T09:51:32;8.30;;;4.30;;
6394;SDS011;3230;42.588;23.358;2022-10-16T09:56:31;7.40;;;3.70;;
6394;SDS011;3230;42.588;23.358;2022-10-16T09:59:01;7.53;;;4.20;;
6394;SDS011;3230;42.588;23.358;2022-10-16T10:01:40;5.27;;;3.77;;
6394;SDS011;3230;42.588;23.358;2022-10-16T10:04:10;5.83;;;3.33;;
6394;SDS011;3230;42.588;23.358;2022-10-16T10:06:40;6.03;;;3.60;;
6394;SDS011;3230;42.588;23.358;2022-10-16T10:12:02;4.40;;;3.43;;
6394;SDS011;3230;42.588;23.358;2022-10-16T10:19:38;4.60;;;3.60;;
6394;SDS011;3230;42.588;23.358;2022-10-16T10:25:18;4.83;;;3.47;;
6394;SDS011;3230;42.588;23.358;2022-10-16T10:30:56;9.03;;;3.30;;
6394;SDS011;3230;42.588;23.358;2022-10-16T10:38:44;9.10;;;3.10;;
6394;SDS011;3230;42.588;23.358;2022-10-16T10:44:12;4.70;;;3.30;;
6394;SDS011;3230;42.588;23.358;2022-10-16T10:49:34;7.10;;;2.60;;
6394;SDS011;3230;42.588;23.358;2022-10-16T10:52:13;5.77;;;3.33;;
6394;SDS011;3230;42.588;23.358;2022-10-16T10:54:56;5.80;;;3.67;;
6394;SDS011;3230;42.588;23.358;2022-10-16T10:57:51;4.53;;;3.53;;
6394;SDS011;3230;42.588;23.358;2022-10-16T11:03:08;6.60;;;3.17;;
6394;SDS011;3230;42.588;23.358;2022-10-16T11:08:18;5.37;;;3.73;;
6394;SDS011;3230;42.588;23.358;2022-10-16T11:10:50;5.80;;;3.60;;
6394;SDS011;3230;42.588;23.358;2022-10-16T11:13:37;3.50;;;2.97;;
6394;SDS011;3230;42.588;23.358;2022-10-16T11:16:19;5.77;;;3.20;;
6394;SDS011;3230;42.588;23.358;2022-10-16T11:18:56;3.80;;;3.10;;
6394;SDS011;3230;42.588;23.358;2022-10-16T11:21:28;3.57;;;3.00;;
6394;SDS011;3230;42.588;23.358;2022-10-16T11:26:44;5.00;;;3.50;;
6394;SDS011;3230;42.588;23.358;2022-10-16T11:29:33;3.93;;;3.30;;
6394;SDS011;3230;42.588;23.358;2022-10-16T11:32:03;2.73;;;2.40;;
6394;SDS011;3230;42.588;23.358;2022-10-16T11:40:19;3.30;;;2.77;;
6394;SDS011;3230;42.588;23.358;2022-10-16T11:42:51;6.33;;;2.90;;
6394;SDS011;3230;42.588;23.358;2022-10-16T11:45:46;4.77;;;3.23;;
6394;SDS011;3230;42.588;23.358;2022-10-16T11:51:31;23.63;;;4.50;;
6394;SDS011;3230;42.588;23.358;2022-10-16T11:53:59;6.50;;;2.93;;
6394;SDS011;3230;42.588;23.358;2022-10-16T11:56:29;5.87;;;2.77;;
6394;SDS011;3230;42.588;23.358;2022-10-16T11:58:59;5.53;;;2.90;;
6394;SDS011;3230;42.588;23.358;2022-10-16T12:01:47;3.97;;;2.60;;
6394;SDS011;3230;42.588;23.358;2022-10-16T12:06:58;3.47;;;2.47;;
6394;SDS011;3230;42.588;23.358;2022-10-16T12:09:30;4.00;;;2.47;;
6394;SDS011;3230;42.588;23.358;2022-10-16T12:11:57;4.00;;;2.30;;
6394;SDS011;3230;42.588;23.358;2022-10-16T12:17:02;4.07;;;2.00;;
6394;SDS011;3230;42.588;23.358;2022-10-16T12:19:57;5.50;;;2.20;;
6394;SDS011;3230;42.588;23.358;2022-10-16T12:22:47;4.40;;;2.53;;
6394;SDS011;3230;42.588;23.358;2022-10-16T12:28:01;4.33;;;2.43;;
6394;SDS011;3230;42.588;23.358;2022-10-16T12:30:28;3.00;;;2.30;;
6394;SDS011;3230;42.588;23.358;2022-10-16T12:33:05;4.83;;;2.63;;
6394;SDS011;3230;42.588;23.358;2022-10-16T12:35:47;2.27;;;2.07;;
6394;SDS011;3230;42.588;23.358;2022-10-16T12:41:11;2.80;;;2.20;;
6394;SDS011;3230;42.588;23.358;2022-10-16T12:48:34;3.27;;;2.43;;
6394;SDS011;3230;42.588;23.358;2022-10-16T12:54:02;2.70;;;1.80;;
6394;SDS011;3230;42.588;23.358;2022-10-16T12:59:19;3.03;;;2.27;;
6394;SDS011;3230;42.588;23.358;2022-10-16T13:12:57;2.77;;;2.20;;
6394;SDS011;3230;42.588;23.358;2022-10-16T13:30:09;3.93;;;2.03;;
6394;SDS011;3230;42.588;23.358;2022-10-16T13:32:44;2.47;;;1.90;;
6394;SDS011;3230;42.588;23.358;2022-10-16T13:35:19;2.40;;;2.20;;
6394;SDS011;3230;42.588;23.358;2022-10-16T13:37:49;3.10;;;2.30;;
6394;SDS011;3230;42.588;23.358;2022-10-16T13:40:22;3.67;;;2.37;;
6394;SDS011;3230;42.588;23.358;2022-10-16T13:42:49;4.90;;;2.40;;
6394;SDS011;3230;42.588;23.358;2022-10-16T13:45:20;2.87;;;2.10;;
6394;SDS011;3230;42.588;23.358;2022-10-16T13:47:47;2.50;;;2.30;;
6394;SDS011;3230;42.588;23.358;2022-10-16T13:50:14;2.77;;;2.10;;
6394;SDS011;3230;42.588;23.358;2022-10-16T13:52:41;4.97;;;2.07;;
6394;SDS011;3230;42.588;23.358;2022-10-16T13:55:10;2.43;;;1.90;;
6394;SDS011;3230;42.588;23.358;2022-10-16T13:57:37;2.73;;;1.80;;
6394;SDS011;3230;42.588;23.358;2022-10-16T14:00:03;2.10;;;1.97;;
6394;SDS011;3230;42.588;23.358;2022-10-16T14:02:42;2.80;;;2.27;;
6394;SDS011;3230;42.588;23.358;2022-10-16T14:05:08;5.00;;;2.60;;
6394;SDS011;3230;42.588;23.358;2022-10-16T14:07:35;3.70;;;2.73;;
6394;SDS011;3230;42.588;23.358;2022-10-16T14:10:03;3.50;;;2.40;;
6394;SDS011;3230;42.588;23.358;2022-10-16T14:12:31;3.67;;;2.70;;
6394;SDS011;3230;42.588;23.358;2022-10-16T14:14:57;4.23;;;2.70;;
6394;SDS011;3230;42.588;23.358;2022-10-16T14:17:26;8.07;;;2.50;;
6394;SDS011;3230;42.588;23.358;2022-10-16T14:19:57;2.73;;;2.37;;
6394;SDS011;3230;42.588;23.358;2022-10-16T14:22:32;3.10;;;2.57;;
6394;SDS011;3230;42.588;23.358;2022-10-16T14:25:02;12.43;;;2.27;;
6394;SDS011;3230;42.588;23.358;2022-10-16T14:27:58;4.00;;;2.07;;
6394;SDS011;3230;42.588;23.358;2022-10-16T14:30:27;4.70;;;2.37;;
6394;SDS011;3230;42.588;23.358;2022-10-16T14:35:23;8.40;;;3.30;;
6394;SDS011;3230;42.588;23.358;2022-10-16T14:37:53;10.70;;;5.90;;
6394;SDS011;3230;42.588;23.358;2022-10-16T14:40:21;18.97;;;7.20;;
6394;SDS011;3230;42.588;23.358;2022-10-16T14:42:50;30.23;;;11.67;;
6394;SDS011;3230;42.588;23.358;2022-10-16T14:45:18;31.20;;;10.90;;
6394;SDS011;3230;42.588;23.358;2022-10-16T14:47:58;13.60;;;6.00;;
6394;SDS011;3230;42.588;23.358;2022-10-16T14:50:27;14.80;;;6.80;;
6394;SDS011;3230;42.588;23.358;2022-10-16T14:52:52;24.83;;;12.10;;
6394;SDS011;3230;42.588;23.358;2022-10-16T14:55:18;22.40;;;9.90;;
6394;SDS011;3230;42.588;23.358;2022-10-16T14:57:44;21.47;;;10.47;;
6394;SDS011;3230;42.588;23.358;2022-10-16T15:00:15;22.27;;;11.90;;
6394;SDS011;3230;42.588;23.358;2022-10-16T15:02:44;26.10;;;12.60;;
6394;SDS011;3230;42.588;23.358;2022-10-16T15:05:12;22.80;;;11.40;;
6394;SDS011;3230;42.588;23.358;2022-10-16T15:07:45;25.00;;;14.20;;
6394;SDS011;3230;42.588;23.358;2022-10-16T15:10:12;22.97;;;11.77;;
6394;SDS011;3230;42.588;23.358;2022-10-16T15:12:39;18.50;;;10.00;;
6394;SDS011;3230;42.588;23.358;2022-10-16T15:17:36;21.00;;;11.23;;
6394;SDS011;3230;42.588;23.358;2022-10-16T15:20:02;39.10;;;20.83;;
6394;SDS011;3230;42.588;23.358;2022-10-16T15:22:27;35.50;;;19.17;;
6394;SDS011;3230;42.588;23.358;2022-10-16T15:24:53;27.57;;;15.17;;
6394;SDS011;3230;42.588;23.358;2022-10-16T15:27:18;21.57;;;12.07;;
6394;SDS011;3230;42.588;23.358;2022-10-16T15:29:43;24.10;;;10.43;;
6394;SDS011;3230;42.588;23.358;2022-10-16T15:32:09;19.00;;;9.63;;
6394;SDS011;3230;42.588;23.358;2022-10-16T15:34:35;15.93;;;7.90;;
6394;SDS011;3230;42.588;23.358;2022-10-16T15:37:02;11.40;;;5.63;;
6394;SDS011;3230;42.588;23.358;2022-10-16T15:39:28;12.43;;;6.27;;
6394;SDS011;3230;42.588;23.358;2022-10-16T15:41:54;17.43;;;6.00;;
6394;SDS011;3230;42.588;23.358;2022-10-16T15:44:19;12.20;;;4.80;;
6394;SDS011;3230;42.588;23.358;2022-10-16T15:46:48;14.80;;;5.00;;
6394;SDS011;3230;42.588;23.358;2022-10-16T15:49:13;7.00;;;3.80;;
6394;SDS011;3230;42.588;23.358;2022-10-16T15:51:40;13.60;;;5.83;;
6394;SDS011;3230;42.588;23.358;2022-10-16T15:54:07;9.60;;;6.17;;
6394;SDS011;3230;42.588;23.358;2022-10-16T15:56:33;14.40;;;5.80;;
6394;SDS011;3230;42.588;23.358;2022-10-16T15:58:59;6.83;;;3.77;;
6394;SDS011;3230;42.588;23.358;2022-10-16T16:01:25;5.27;;;3.07;;
6394;SDS011;3230;42.588;23.358;2022-10-16T16:03:52;4.60;;;3.30;;
6394;SDS011;3230;42.588;23.358;2022-10-16T16:06:18;7.60;;;3.80;;
6394;SDS011;3230;42.588;23.358;2022-10-16T16:08:44;7.57;;;3.70;;
6394;SDS011;3230;42.588;23.358;2022-10-16T16:11:10;6.60;;;3.90;;
6394;SDS011;3230;42.588;23.358;2022-10-16T16:13:38;7.90;;;4.73;;
6394;SDS011;3230;42.588;23.358;2022-10-16T16:16:09;11.20;;;6.40;;
6394;SDS011;3230;42.588;23.358;2022-10-16T16:18:36;21.67;;;10.70;;
6394;SDS011;3230;42.588;23.358;2022-10-16T16:21:03;24.20;;;13.00;;
6394;SDS011;3230;42.588;23.358;2022-10-16T16:23:29;31.73;;;14.43;;
6394;SDS011;3230;42.588;23.358;2022-10-16T16:28:30;25.10;;;13.50;;
6394;SDS011;3230;42.588;23.358;2022-10-16T16:30:56;43.93;;;18.40;;
6394;SDS011;3230;42.588;23.358;2022-10-16T16:33:21;43.13;;;20.70;;
6394;SDS011;3230;42.588;23.358;2022-10-16T16:35:46;48.17;;;23.40;;
6394;SDS011;3230;42.588;23.358;2022-10-16T16:38:12;43.20;;;22.80;;
6394;SDS011;3230;42.588;23.358;2022-10-16T16:40:37;31.83;;;16.17;;
6394;SDS011;3230;42.588;23.358;2022-10-16T16:43:03;32.53;;;17.40;;
6394;SDS011;3230;42.588;23.358;2022-10-16T16:45:29;32.87;;;16.47;;
6394;SDS011;3230;42.588;23.358;2022-10-16T16:47:54;22.50;;;12.93;;
6394;SDS011;3230;42.588;23.358;2022-10-16T16:50:19;35.43;;;15.77;;
6394;SDS011;3230;42.588;23.358;2022-10-16T16:52:45;26.57;;;14.33;;
6394;SDS011;3230;42.588;23.358;2022-10-16T16:55:10;23.07;;;13.70;;
6394;SDS011;3230;42.588;23.358;2022-10-16T16:57:36;28.03;;;15.40;;
6394;SDS011;3230;42.588;23.358;2022-10-16T17:00:01;28.50;;;15.90;;
6394;SDS011;3230;42.588;23.358;2022-10-16T17:02:28;32.60;;;18.60;;
6394;SDS011;3230;42.588;23.358;2022-10-16T17:04:53;35.07;;;17.77;;
6394;SDS011;3230;42.588;23.358;2022-10-16T17:07:18;30.77;;;16.17;;
6394;SDS011;3230;42.588;23.358;2022-10-16T17:09:44;28.60;;;14.87;;
6394;SDS011;3230;42.588;23.358;2022-10-16T17:12:09;24.73;;;13.40;;
6394;SDS011;3230;42.588;23.358;2022-10-16T17:14:35;18.30;;;10.97;;